Time;durP1;ratioP1;P1;durP2;ratioP2;P2;SDS_P1;SDS_P2;PMS_P1;PMS_P2;Temp;Humidity;BMP_temperature;BMP_pressure;BME280_temperature;BME280_humidity;BME280_pressure;Samples;Min_cycle;Max_cycle;Signal;HPM_P1;HPM_P2
2022/07/04 00:01:57;;;;;;;1.60;1.13;;;20.80;1.00;;;;;;5076780;28;20449;-75
2022/07/04 00:04:27;;;;;;;3.67;1.30;;;20.80;1.00;;;;;;5074298;28;20226;-75
2022/07/04 00:06:53;;;;;;;1.80;1.30;;;20.70;1.00;;;;;;5083557;28;20429;-75
2022/07/04 00:09:19;;;;;;;4.90;1.50;;;20.70;1.00;;;;;;5068316;28;20508;-75
2022/07/04 00:11:45;;;;;;;5.60;1.03;;;20.60;1.00;;;;;;5085386;28;20414;-75
2022/07/04 00:14:15;;;;;;;2.10;1.50;;;20.60;1.00;;;;;;5086110;28;20586;-75
2022/07/04 00:16:41;;;;;;;2.67;1.50;;;20.60;1.00;;;;;;5084978;28;20882;-75
2022/07/04 00:19:09;;;;;;;6.20;1.13;;;20.50;1.00;;;;;;5062914;28;20472;-75
2022/07/04 00:21:39;;;;;;;3.03;1.20;;;20.50;1.00;;;;;;5082470;28;20219;-75
2022/07/04 00:24:09;;;;;;;3.63;1.63;;;20.50;1.00;;;;;;5078793;28;20458;-75
2022/07/04 00:26:51;;;;;;;5.70;1.30;;;20.50;1.00;;;;;;5056288;28;20439;-75
2022/07/04 00:29:21;;;;;;;2.00;1.63;;;20.50;1.00;;;;;;5073126;28;20405;-75
2022/07/04 00:31:47;;;;;;;4.40;1.67;;;20.40;1.00;;;;;;5076769;28;20758;-75
2022/07/04 00:34:13;;;;;;;1.87;1.47;;;20.30;1.00;;;;;;5065105;28;20522;-75
2022/07/04 00:36:39;;;;;;;2.50;1.10;;;20.30;1.00;;;;;;5078102;28;20446;-75
2022/07/04 00:39:06;;;;;;;3.83;1.20;;;20.30;1.00;;;;;;5086692;28;20220;-75
2022/07/04 00:41:33;;;;;;;1.73;1.00;;;20.20;1.00;;;;;;5060980;28;20935;-75
2022/07/04 00:44:09;;;;;;;1.53;1.43;;;20.10;1.00;;;;;;5063182;28;20524;-75
2022/07/04 00:46:35;;;;;;;3.43;1.17;;;20.00;1.00;;;;;;5059166;28;20896;-75
2022/07/04 00:49:04;;;;;;;2.17;1.20;;;19.90;1.00;;;;;;5065807;28;20756;-75
2022/07/04 00:51:30;;;;;;;2.10;1.30;;;19.80;1.00;;;;;;5086720;28;20429;-75
2022/07/04 00:53:58;;;;;;;1.30;1.30;;;19.80;1.00;;;;;;5076234;28;20511;-75
2022/07/04 00:56:25;;;;;;;1.30;1.07;;;19.70;1.00;;;;;;5070296;28;20423;-75
2022/07/04 00:58:52;;;;;;;1.10;1.10;;;19.60;1.00;;;;;;5055666;28;20410;-75
2022/07/04 01:01:21;;;;;;;3.63;1.30;;;19.50;1.00;;;;;;5067806;28;20778;-75
2022/07/04 01:03:51;;;;;;;5.30;1.47;;;19.50;1.00;;;;;;5063389;28;20433;-75
2022/07/04 01:06:19;;;;;;;2.80;1.60;;;19.40;1.00;;;;;;5066370;28;20425;-75
2022/07/04 01:08:45;;;;;;;2.87;1.40;;;19.30;1.00;;;;;;5075310;28;20419;-75
2022/07/04 01:11:16;;;;;;;7.70;1.80;;;19.20;1.00;;;;;;5078044;28;20768;-75
2022/07/04 01:13:43;;;;;;;9.10;1.40;;;19.10;1.00;;;;;;5059616;28;20522;-75
2022/07/04 01:16:15;;;;;;;4.43;1.87;;;19.10;1.00;;;;;;5059201;28;20425;-75
2022/07/04 01:18:41;;;;;;;2.60;1.37;;;19.10;1.00;;;;;;5088762;28;20408;-75
2022/07/04 01:21:09;;;;;;;2.40;1.57;;;19.00;1.00;;;;;;5075305;28;20409;-75
2022/07/04 01:23:40;;;;;;;3.40;1.60;;;18.90;1.00;;;;;;5059979;28;20186;-75
2022/07/04 01:26:07;;;;;;;4.50;1.50;;;18.90;1.00;;;;;;5062586;28;20428;-75
2022/07/04 01:28:33;;;;;;;2.23;1.60;;;18.80;1.00;;;;;;5057724;28;20930;-75
2022/07/04 01:31:00;;;;;;;2.07;1.63;;;18.80;1.00;;;;;;5075292;28;20414;-75
2022/07/04 01:33:26;;;;;;;1.93;1.63;;;18.70;1.00;;;;;;5063540;28;20838;-75
2022/07/04 01:35:52;;;;;;;2.33;1.23;;;18.70;1.00;;;;;;5055177;28;20535;-75
2022/07/04 01:38:27;;;;;;;1.43;1.27;;;18.60;1.00;;;;;;5074300;28;20423;-75
2022/07/04 01:41:32;;;;;;;2.27;1.70;;;18.60;1.00;;;;;;5076240;28;20192;-79
2022/07/04 01:44:15;;;;;;;2.93;1.50;;;18.50;1.00;;;;;;5055251;28;20410;-79
2022/07/04 01:47:15;;;;;;;2.50;1.50;;;18.40;1.00;;;;;;5068362;28;20413;-80
2022/07/04 01:49:51;;;;;;;5.00;1.77;;;18.30;1.00;;;;;;5053877;28;20416;-80
2022/07/04 01:55:39;;;;;;;3.20;2.30;;;18.20;1.00;;;;;;5067148;28;20435;-80
2022/07/04 01:58:39;;;;;;;2.23;2.03;;;18.10;1.00;;;;;;5056599;28;20424;-79
2022/07/04 02:01:33;;;;;;;2.70;1.73;;;18.00;1.00;;;;;;5063785;28;20903;-79
2022/07/04 02:04:01;;;;;;;2.67;1.67;;;17.90;1.00;;;;;;5055903;28;20456;-80
2022/07/04 02:06:28;;;;;;;4.13;1.63;;;17.90;1.00;;;;;;5054617;28;20412;-80
2022/07/04 02:09:16;;;;;;;2.43;1.80;;;17.80;1.00;;;;;;5054193;28;20425;-79
2022/07/04 02:15:10;;;;;;;2.00;1.90;;;17.80;1.00;;;;;;5051524;28;20421;-75
2022/07/04 02:17:51;;;;;;;2.83;2.00;;;17.70;1.00;;;;;;5051300;28;20416;-75
2022/07/04 02:20:17;;;;;;;5.70;2.20;;;17.70;1.00;;;;;;5065289;28;20437;-75
2022/07/04 02:22:44;;;;;;;2.40;2.20;;;17.70;1.00;;;;;;5032076;28;20429;-75
2022/07/04 02:25:27;;;;;;;3.73;1.70;;;17.60;1.00;;;;;;5060736;28;20409;-75
2022/07/04 02:27:57;;;;;;;10.33;2.23;;;17.60;1.00;;;;;;5051593;28;20922;-75
2022/07/04 02:30:27;;;;;;;4.27;1.73;;;17.60;1.00;;;;;;5051949;28;20816;-75
2022/07/04 02:32:53;;;;;;;2.00;1.80;;;17.60;1.00;;;;;;5051852;28;20458;-75
2022/07/04 02:35:21;;;;;;;3.00;2.10;;;17.50;1.00;;;;;;5051858;28;20431;-75
2022/07/04 02:37:47;;;;;;;2.10;1.90;;;17.50;1.00;;;;;;5051720;28;20716;-76
2022/07/04 02:40:13;;;;;;;2.03;1.80;;;17.50;1.00;;;;;;5065100;28;20445;-75
2022/07/04 02:42:57;;;;;;;3.30;1.70;;;17.50;1.00;;;;;;5051917;28;20186;-79
2022/07/04 02:48:43;;;;;;;3.23;1.80;;;17.40;1.00;;;;;;5040133;28;20390;-80
2022/07/04 02:57:52;;;;;;;4.50;2.30;;;17.30;1.00;;;;;;5057032;28;20448;-75
2022/07/04 03:00:18;;;;;;;5.03;2.60;;;17.20;1.00;;;;;;5063468;28;20404;-75
2022/07/04 03:03:21;;;;;;;2.10;1.97;;;17.20;1.00;;;;;;5072642;28;20194;-75
2022/07/04 03:06:03;;;;;;;2.93;2.30;;;17.20;1.00;;;;;;5067347;28;20179;-75
2022/07/04 03:08:52;;;;;;;2.47;2.20;;;17.20;1.00;;;;;;5053566;28;20407;-75
2022/07/04 03:11:19;;;;;;;2.70;1.90;;;17.10;1.00;;;;;;5067192;28;20422;-75
2022/07/04 03:17:06;;;;;;;8.23;2.07;;;17.00;1.00;;;;;;5055609;28;20398;-80
2022/07/04 03:22:54;;;;;;;2.70;2.20;;;17.00;1.00;;;;;;5063016;28;20544;-80
2022/07/04 03:28:41;;;;;;;2.20;2.10;;;16.90;1.00;;;;;;5085509;28;20409;-75
2022/07/04 03:31:09;;;;;;;2.20;2.10;;;16.90;1.00;;;;;;5084343;28;20409;-75
2022/07/04 03:33:35;;;;;;;2.53;2.33;;;16.90;1.00;;;;;;5086569;28;20200;-75
2022/07/04 03:36:15;;;;;;;3.10;2.30;;;16.90;1.00;;;;;;5062540;28;20415;-75
2022/07/04 03:38:51;;;;;;;4.50;2.80;;;16.90;1.00;;;;;;5073072;28;20172;-76
2022/07/04 03:41:51;;;;;;;2.73;2.43;;;16.80;1.00;;;;;;5063266;28;20861;-75
2022/07/04 03:44:21;;;;;;;4.60;2.37;;;16.80;1.00;;;;;;5066738;28;20414;-75
2022/07/04 03:46:47;;;;;;;6.10;2.73;;;16.80;1.00;;;;;;5086766;28;20912;-75
2022/07/04 03:49:45;;;;;;;3.17;2.50;;;16.80;1.00;;;;;;5060653;28;20406;-76
2022/07/04 03:52:11;;;;;;;7.27;3.10;;;16.70;1.00;;;;;;5058788;28;20210;-75
2022/07/04 03:54:36;;;;;;;2.97;2.13;;;16.70;1.00;;;;;;5061933;28;20472;-75
2022/07/04 03:57:09;;;;;;;2.50;2.30;;;16.70;1.00;;;;;;5082906;28;20168;-75
2022/07/04 03:59:45;;;;;;;5.67;2.50;;;16.70;1.00;;;;;;5073608;28;20491;-76
2022/07/04 04:02:15;;;;;;;4.10;2.67;;;16.80;1.00;;;;;;5057892;28;20452;-75
2022/07/04 04:07:52;;;;;;;2.33;2.10;;;16.70;1.00;;;;;;5085678;28;20496;-78
2022/07/04 04:10:56;;;;;;;4.40;2.60;;;16.70;1.00;;;;;;5071040;28;20431;-76
2022/07/04 04:13:22;;;;;;;2.87;2.53;;;16.70;1.00;;;;;;5066608;28;20456;-77
2022/07/04 04:15:57;;;;;;;5.80;2.20;;;16.60;1.00;;;;;;5069098;28;20427;-77
2022/07/04 04:18:27;;;;;;;3.27;2.33;;;16.70;1.00;;;;;;5063629;28;20179;-76
2022/07/04 04:20:53;;;;;;;6.87;2.80;;;16.60;1.00;;;;;;5081523;28;20408;-77
2022/07/04 04:23:21;;;;;;;2.90;2.70;;;16.60;1.00;;;;;;5076793;28;20823;-76
2022/07/04 04:26:21;;;;;;;4.10;2.53;;;16.60;1.00;;;;;;5063537;28;20175;-77
2022/07/04 04:29:38;;;;;;;4.97;2.83;;;16.60;1.00;;;;;;5086538;28;20422;-77
2022/07/04 04:32:04;;;;;;;2.93;2.30;;;16.60;1.00;;;;;;5062702;28;20409;-77
2022/07/04 04:34:39;;;;;;;10.63;2.50;;;16.60;1.00;;;;;;5069606;28;20471;-77
2022/07/04 04:40:26;;;;;;;5.07;2.40;;;16.60;1.00;;;;;;5068602;28;20765;-77
2022/07/04 04:43:33;;;;;;;5.53;2.60;;;16.70;1.00;;;;;;5072210;28;20413;-76
2022/07/04 04:49:33;;;;;;;3.10;2.60;;;16.70;1.00;;;;;;5082999;28;20396;-77
2022/07/04 04:52:33;;;;;;;4.97;2.70;;;16.70;1.00;;;;;;5067153;28;20914;-77
2022/07/04 04:55:27;;;;;;;5.00;3.17;;;16.70;1.00;;;;;;5062414;28;20773;-77
2022/07/04 04:57:53;;;;;;;2.53;2.43;;;16.80;1.00;;;;;;5067897;28;20517;-78
2022/07/04 05:00:21;;;;;;;4.40;2.70;;;16.80;1.00;;;;;;5076117;28;20426;-78
2022/07/04 05:03:21;;;;;;;3.33;2.67;;;16.80;1.00;;;;;;5070991;28;20168;-76
2022/07/04 05:05:51;;;;;;;4.27;2.50;;;16.90;1.00;;;;;;5058282;28;20383;-77
2022/07/04 05:08:17;;;;;;;5.37;3.10;;;16.90;1.00;;;;;;5065639;28;20396;-76
2022/07/04 05:10:52;;;;;;;3.00;2.70;;;17.00;1.00;;;;;;5073286;28;20415;-76
2022/07/04 05:16:57;;;;;;;2.93;2.37;;;17.20;1.00;;;;;;5063505;28;20403;-88
2022/07/04 05:19:23;;;;;;;2.60;2.40;;;17.30;1.00;;;;;;5055841;28;20392;-84
2022/07/04 05:28:32;;;;;;;3.37;2.60;;;17.60;1.00;;;;;;5058466;28;20391;-79
2022/07/04 05:31:39;;;;;;;4.03;2.57;;;17.70;1.00;;;;;;5065391;28;20424;-78
2022/07/04 05:34:27;;;;;;;9.30;3.13;;;17.70;1.00;;;;;;5063488;28;20213;-79
2022/07/04 05:40:14;;;;;;;3.20;2.27;;;18.00;1.00;;;;;;5068319;28;20458;-78
2022/07/04 05:42:57;;;;;;;5.50;2.33;;;18.10;1.00;;;;;;5074589;28;20446;-79
2022/07/04 05:45:51;;;;;;;8.10;1.90;;;18.20;1.00;;;;;;5063306;28;20181;-85
2022/07/04 05:51:57;;;;;;;4.10;1.73;;;18.50;1.00;;;;;;5060989;28;20391;-84
2022/07/04 05:58:33;;;;;;;3.27;1.90;;;18.70;1.00;;;;;;5074700;28;20469;-89
2022/07/04 06:01:21;;;;;;;5.47;1.90;;;18.90;1.00;;;;;;5071202;28;20405;-89
2022/07/04 06:10:30;;;;;;;3.90;1.57;;;19.30;1.00;;;;;;5072976;28;20445;-89
2022/07/04 06:16:21;;;;;;;5.17;3.80;;;19.60;1.00;;;;;;5054157;28;20233;-78
2022/07/04 06:18:51;;;;;;;6.90;1.90;;;19.70;1.00;;;;;;5067452;28;20409;-78
2022/07/04 06:21:27;;;;;;;2.33;1.40;;;19.80;1.00;;;;;;5064373;28;20760;-79
2022/07/04 06:23:53;;;;;;;5.97;1.97;;;19.90;1.00;;;;;;5060290;28;20446;-78
2022/07/04 06:26:19;;;;;;;7.53;1.40;;;19.90;1.00;;;;;;5057660;28;20423;-77
2022/07/04 06:32:04;;;;;;;1.30;1.20;;;20.20;1.00;;;;;;5074037;28;20193;-76
2022/07/04 06:37:15;;;;;;;4.80;1.40;;;20.40;1.00;;;;;;5062018;28;20416;-75
2022/07/04 06:39:45;;;;;;;1.80;1.20;;;20.50;1.00;;;;;;5059520;28;20410;-76
2022/07/04 06:42:33;;;;;;;2.40;1.20;;;20.60;1.00;;;;;;5062348;28;20182;-75
2022/07/04 06:51:42;;;;;;;10.23;2.13;;;21.10;1.00;;;;;;5073807;28;20443;-86
2022/07/04 07:01:32;;;;;;;3.60;1.43;;;21.40;1.00;;;;;;5089588;28;20407;-78
2022/07/04 07:04:21;;;;;;;6.00;1.40;;;21.60;1.00;;;;;;5054689;28;20402;-87
2022/07/04 07:07:03;;;;;;;1.43;1.30;;;21.80;1.00;;;;;;5078246;28;20468;-79
2022/07/04 07:12:51;;;;;;;3.37;1.00;;;21.90;1.00;;;;;;5060427;28;20464;-79
2022/07/04 07:15:18;;;;;;;1.83;1.30;;;22.10;1.00;;;;;;5068236;28;20411;-76
2022/07/04 07:17:51;;;;;;;8.73;1.43;;;22.10;1.00;;;;;;5060962;28;20178;-77
2022/07/04 07:20:39;;;;;;;2.50;1.00;;;22.20;1.00;;;;;;5071814;28;20394;-75
2022/07/04 07:23:05;;;;;;;1.87;1.10;;;22.30;1.00;;;;;;5080568;28;20417;-76
2022/07/04 07:25:33;;;;;;;4.37;1.10;;;22.40;1.00;;;;;;5080979;28;20426;-76
2022/07/04 07:28:15;;;;;;;7.50;1.40;;;22.50;1.00;;;;;;5055192;28;20240;-76
2022/07/04 07:30:57;;;;;;;2.20;1.20;;;22.50;1.00;;;;;;5057378;28;20422;-76
2022/07/04 07:33:23;;;;;;;2.00;1.00;;;22.60;1.00;;;;;;5058191;28;20947;-76
2022/07/04 07:36:33;;;;;;;2.60;1.10;;;22.70;1.00;;;;;;5084416;28;20417;-76
2022/07/04 07:39:03;;;;;;;6.00;1.23;;;22.70;1.00;;;;;;5061943;28;20229;-75
2022/07/04 07:41:29;;;;;;;4.07;1.17;;;22.70;1.00;;;;;;5061892;28;20427;-75
2022/07/04 07:43:55;;;;;;;5.80;1.20;;;22.80;1.00;;;;;;5068416;28;20419;-76
2022/07/04 07:46:21;;;;;;;1.23;1.10;;;23.00;1.00;;;;;;5053932;28;20178;-76
2022/07/04 07:48:51;;;;;;;11.93;1.30;;;23.00;1.00;;;;;;5061723;28;20185;-76
2022/07/04 07:51:33;;;;;;;1.50;1.20;;;23.20;1.00;;;;;;5060574;28;20501;-76
2022/07/04 07:53:59;;;;;;;1.10;1.00;;;23.30;1.00;;;;;;5077578;28;20530;-75
2022/07/04 07:56:25;;;;;;;9.20;1.83;;;23.40;1.00;;;;;;5073686;28;20447;-77
2022/07/04 07:58:57;;;;;;;3.03;1.30;;;23.40;1.00;;;;;;5060407;28;20412;-78
2022/07/04 08:05:03;;;;;;;2.67;1.30;;;23.10;1.00;;;;;;5064312;28;20929;-78
2022/07/04 08:07:46;;;;;;;1.17;1.10;;;23.30;1.00;;;;;;5060219;28;20419;-77
2022/07/04 08:10:17;;;;;;;7.43;1.10;;;23.30;1.00;;;;;;5058806;28;21615;-76
2022/07/04 08:12:43;;;;;;;5.60;1.53;;;23.40;1.00;;;;;;5056986;28;20784;-77
2022/07/04 08:18:45;;;;;;;10.13;1.30;;;23.90;1.00;;;;;;5069491;28;20232;-79
2022/07/04 08:22:03;;;;;;;2.90;1.40;;;24.20;1.00;;;;;;5065310;28;20777;-79
2022/07/04 08:25:03;;;;;;;1.10;1.00;;;24.40;1.00;;;;;;5074637;28;20420;-79
2022/07/04 08:28:03;;;;;;;2.87;1.17;;;24.50;1.00;;;;;;5075954;28;20410;-79
2022/07/04 08:30:28;;;;;;;10.23;1.60;;;25.00;1.00;;;;;;5075481;28;20513;-77
2022/07/04 08:32:54;;;;;;;3.27;1.20;;;25.20;1.00;;;;;;5074533;28;21028;-77
2022/07/04 08:35:19;;;;;;;3.80;1.60;;;25.40;1.00;;;;;;5065867;28;20670;-76
2022/07/04 08:37:45;;;;;;;4.70;1.97;;;25.30;1.00;;;;;;5074678;28;20189;-76
2022/07/04 08:40:11;;;;;;;3.10;1.27;;;24.70;1.00;;;;;;5069849;28;20953;-76
2022/07/04 08:42:39;;;;;;;8.93;1.80;;;24.30;1.00;;;;;;5074444;28;20204;-76
2022/07/04 08:45:07;;;;;;;5.13;1.50;;;24.40;1.00;;;;;;5070360;28;20500;-76
2022/07/04 08:47:35;;;;;;;3.67;1.47;;;24.40;1.00;;;;;;5064066;28;20420;-79
2022/07/04 08:50:26;;;;;;;3.00;1.33;;;24.30;1.00;;;;;;5071599;28;20427;-79
2022/07/04 08:53:11;;;;;;;3.97;1.50;;;24.30;1.00;;;;;;5060399;28;20540;-79
2022/07/04 08:58:57;;;;;;;6.10;1.33;;;24.40;1.00;;;;;;5035215;28;20466;-80
2022/07/04 09:01:34;;;;;;;4.13;1.50;;;24.50;1.00;;;;;;5037065;28;20496;-76
2022/07/04 09:04:10;;;;;;;2.73;1.10;;;24.40;1.00;;;;;;5036625;28;20479;-76
2022/07/04 09:06:40;;;;;;;6.33;1.50;;;24.30;1.00;;;;;;5046875;28;20421;-76
2022/07/04 09:09:23;;;;;;;3.60;1.27;;;24.30;1.00;;;;;;5047084;28;20440;-75
2022/07/04 09:11:52;;;;;;;1.90;0.90;;;24.40;1.00;;;;;;5039230;28;20488;-75
2022/07/04 09:14:24;;;;;;;2.77;0.83;;;24.40;1.00;;;;;;5040228;28;20560;-75
2022/07/04 09:17:04;;;;;;;2.60;1.10;;;24.30;1.00;;;;;;5033261;28;20427;-79
2022/07/04 09:19:33;;;;;;;1.10;1.00;;;24.40;1.00;;;;;;5037714;28;20498;-79
2022/07/04 09:22:10;;;;;;;1.17;0.83;;;24.50;1.00;;;;;;5053319;28;20415;-88
2022/07/04 09:24:54;;;;;;;4.00;0.97;;;24.60;1.00;;;;;;5033637;28;20418;-86
2022/07/04 09:30:51;;;;;;;2.60;1.10;;;24.80;1.00;;;;;;5037098;28;20412;-87
2022/07/04 09:33:23;;;;;;;1.20;1.10;;;24.80;1.00;;;;;;5035055;28;21003;-87
2022/07/04 09:36:27;;;;;;;2.13;0.90;;;24.90;1.00;;;;;;5052562;28;20831;-85
2022/07/04 09:39:33;;;;;;;3.00;1.30;;;24.80;1.00;;;;;;4999646;28;20431;-85
2022/07/04 09:42:04;;;;;;;3.37;1.00;;;24.90;1.00;;;;;;5046159;28;20507;-81
2022/07/04 09:44:57;;;;;;;3.33;0.97;;;24.90;1.00;;;;;;5021156;28;20435;-83
2022/07/04 09:47:24;;;;;;;1.43;0.80;;;24.90;1.00;;;;;;5033488;28;20427;-78
2022/07/04 09:50:03;;;;;;;2.27;1.17;;;24.80;1.00;;;;;;5041596;28;20950;-79
2022/07/04 09:52:57;;;;;;;1.20;1.00;;;24.80;1.00;;;;;;5033404;28;20426;-78
2022/07/04 09:55:37;;;;;;;1.33;0.90;;;24.90;1.00;;;;;;4994081;28;20434;-78
2022/07/04 09:58:21;;;;;;;6.30;1.60;;;25.00;1.00;;;;;;4993657;28;20920;-78
2022/07/04 10:01:03;;;;;;;5.23;1.20;;;25.10;1.00;;;;;;4992081;28;20862;-81
2022/07/04 10:03:51;;;;;;;3.10;1.00;;;25.30;1.00;;;;;;4992731;28;20505;-79
2022/07/04 10:06:34;;;;;;;2.90;0.90;;;25.30;1.00;;;;;;4992521;28;20443;-79
2022/07/04 10:09:33;;;;;;;3.50;1.03;;;25.30;1.00;;;;;;4994370;28;20417;-78
2022/07/04 10:12:04;;;;;;;2.17;1.20;;;25.50;1.00;;;;;;4991589;28;20497;-78
2022/07/04 10:14:51;;;;;;;1.47;0.80;;;25.60;1.00;;;;;;4992698;28;20498;-78
2022/07/04 10:17:33;;;;;;;18.43;1.20;;;25.80;1.00;;;;;;4992852;28;20515;-78
2022/07/04 10:20:00;;;;;;;1.83;0.77;;;25.80;1.00;;;;;;4976327;28;20977;-78
2022/07/04 10:22:36;;;;;;;4.13;1.20;;;26.00;1.00;;;;;;4976867;28;20505;-79
2022/07/04 10:25:04;;;;;;;2.40;0.90;;;26.00;1.00;;;;;;5005608;28;20810;-78
2022/07/04 10:27:34;;;;;;;2.30;0.80;;;26.00;1.00;;;;;;4992525;28;20779;-78
2022/07/04 10:30:06;;;;;;;1.37;0.60;;;26.00;1.00;;;;;;5009260;28;20409;-78
2022/07/04 10:32:34;;;;;;;1.40;0.80;;;26.00;1.00;;;;;;5039065;28;20769;-79
2022/07/04 10:35:04;;;;;;;5.90;1.33;;;26.00;1.00;;;;;;5064844;28;20972;-79
2022/07/04 10:38:09;;;;;;;1.00;0.80;;;26.10;1.00;;;;;;5074087;28;20488;-78
2022/07/04 10:41:03;;;;;;;0.90;0.70;;;26.00;1.00;;;;;;5069301;28;20602;-79
2022/07/04 10:43:37;;;;;;;6.33;0.77;;;26.10;1.00;;;;;;5063068;28;20437;-78
2022/07/04 10:46:15;;;;;;;1.77;0.80;;;26.30;1.00;;;;;;5073244;28;20417;-78
2022/07/04 10:49:21;;;;;;;1.10;0.73;;;26.50;1.00;;;;;;5073597;28;20478;-82
2022/07/04 10:52:23;;;;;;;1.77;0.80;;;26.60;1.00;;;;;;5073476;28;20452;-83
2022/07/04 10:54:49;;;;;;;7.73;0.87;;;26.70;1.00;;;;;;5036490;28;20874;-82
2022/07/04 10:57:38;;;;;;;1.57;0.73;;;26.90;1.00;;;;;;5020893;28;20647;-92
2022/07/04 11:00:21;;;;;;;2.20;0.87;;;27.00;1.00;;;;;;5031722;28;20180;-86
2022/07/04 11:03:27;;;;;;;1.57;0.90;;;27.10;1.00;;;;;;5037241;28;20531;-77
2022/07/04 11:05:52;;;;;;;1.30;1.07;;;27.30;1.00;;;;;;5045567;28;20441;-77
2022/07/04 11:08:27;;;;;;;2.50;0.73;;;27.50;1.00;;;;;;5037362;28;20427;-78
2022/07/04 11:11:05;;;;;;;0.70;0.70;;;27.50;1.00;;;;;;5039926;28;20661;-78
2022/07/04 11:13:31;;;;;;;2.47;0.80;;;27.30;1.00;;;;;;5037659;28;20459;-78
2022/07/04 11:16:15;;;;;;;4.00;0.83;;;27.20;1.00;;;;;;5029009;28;21023;-78
2022/07/04 11:19:03;;;;;;;4.93;0.90;;;27.10;1.00;;;;;;5027042;28;20181;-79
2022/07/04 11:21:34;;;;;;;4.27;0.80;;;26.70;1.00;;;;;;5033369;28;20430;-80
2022/07/04 11:23:59;;;;;;;1.83;0.70;;;26.90;1.00;;;;;;5035927;28;20428;-76
2022/07/04 11:26:25;;;;;;;1.37;0.73;;;27.20;1.00;;;;;;5042993;28;20430;-75
2022/07/04 11:28:51;;;;;;;2.60;0.97;;;27.50;1.00;;;;;;5062967;28;20194;-75
2022/07/04 11:31:17;;;;;;;1.40;0.87;;;27.50;1.00;;;;;;5075746;28;20217;-75
2022/07/04 11:33:54;;;;;;;2.43;0.77;;;27.50;1.00;;;;;;5074699;28;20284;-80
2022/07/04 11:36:51;;;;;;;2.50;0.77;;;27.40;1.00;;;;;;5074067;28;20421;-80
2022/07/04 11:39:51;;;;;;;6.73;0.87;;;27.20;1.00;;;;;;5063229;28;20429;-79
2022/07/04 11:45:52;;;;;;;2.00;0.87;;;27.10;1.00;;;;;;5064259;28;20466;-80
2022/07/04 11:48:25;;;;;;;3.40;0.73;;;27.10;1.00;;;;;;5062995;28;20422;-79
2022/07/04 11:50:52;;;;;;;1.30;0.73;;;27.20;1.00;;;;;;5063688;28;20423;-80
2022/07/04 11:53:21;;;;;;;2.27;1.00;;;27.30;1.00;;;;;;5056664;28;20474;-79
2022/07/04 11:55:55;;;;;;;1.70;0.67;;;27.30;1.00;;;;;;5070537;28;20398;-79
2022/07/04 11:59:09;;;;;;;1.00;0.70;;;27.20;1.00;;;;;;5056618;28;20794;-79
2022/07/04 12:02:08;;;;;;;3.40;0.70;;;27.30;1.00;;;;;;5056993;28;20420;-79
2022/07/04 12:04:34;;;;;;;1.20;0.80;;;27.50;1.00;;;;;;5089842;28;20423;-74
2022/07/04 12:07:09;;;;;;;0.83;0.67;;;27.70;1.00;;;;;;5067443;28;20887;-75
2022/07/04 12:09:35;;;;;;;0.83;0.70;;;27.80;1.00;;;;;;5071253;28;20609;-75
2022/07/04 12:12:01;;;;;;;5.50;0.80;;;28.00;1.00;;;;;;5082199;28;20420;-74
2022/07/04 12:14:27;;;;;;;2.07;0.80;;;28.20;1.00;;;;;;5090682;28;20551;-75
2022/07/04 12:17:16;;;;;;;2.10;0.60;;;28.40;1.00;;;;;;5070043;28;20179;-74
2022/07/04 12:20:18;;;;;;;2.73;1.00;;;28.40;1.00;;;;;;5076348;28;20413;-75
2022/07/04 12:22:56;;;;;;;1.60;0.80;;;28.50;1.00;;;;;;5034111;28;20994;-75
2022/07/04 12:25:38;;;;;;;1.57;0.80;;;28.20;1.00;;;;;;5033353;28;20432;-75
2022/07/04 12:28:13;;;;;;;1.57;0.60;;;28.50;1.00;;;;;;5040837;28;20426;-75
2022/07/04 12:30:49;;;;;;;1.67;0.80;;;28.40;1.00;;;;;;5028938;28;20422;-75
2022/07/04 12:33:26;;;;;;;2.50;1.00;;;28.40;1.00;;;;;;5037735;28;20466;-79
2022/07/04 12:36:21;;;;;;;2.77;0.70;;;28.40;1.00;;;;;;5033455;28;20434;-81
2022/07/04 12:38:51;;;;;;;3.90;0.60;;;28.60;1.00;;;;;;5033982;28;20399;-79
2022/07/04 12:41:29;;;;;;;0.90;0.60;;;28.70;1.00;;;;;;5033890;28;20422;-80
2022/07/04 12:43:58;;;;;;;3.60;0.80;;;28.80;1.00;;;;;;5008681;28;20780;-79
2022/07/04 12:46:36;;;;;;;0.73;0.60;;;28.90;1.00;;;;;;5029367;28;20789;-79
2022/07/04 12:49:02;;;;;;;1.53;0.60;;;29.00;1.00;;;;;;5034034;28;20460;-75
2022/07/04 12:51:33;;;;;;;2.70;0.70;;;29.10;1.00;;;;;;5027382;28;20435;-75
2022/07/04 12:54:06;;;;;;;12.07;1.00;;;29.10;1.00;;;;;;5023821;28;20977;-75
2022/07/04 12:56:34;;;;;;;2.83;0.90;;;29.20;1.00;;;;;;5046483;28;20448;-75
2022/07/04 12:59:02;;;;;;;2.10;0.50;;;29.30;1.00;;;;;;5088967;28;20468;-75
2022/07/04 13:01:35;;;;;;;2.53;0.90;;;29.40;1.00;;;;;;5075686;28;20472;-75
2022/07/04 13:04:01;;;;;;;1.47;0.70;;;29.60;1.00;;;;;;5084005;28;20413;-75
2022/07/04 13:06:28;;;;;;;0.90;0.57;;;29.60;1.00;;;;;;5081467;28;20465;-75
2022/07/04 13:08:54;;;;;;;3.23;0.80;;;29.60;1.00;;;;;;5058790;28;20433;-74
2022/07/04 13:14:05;;;;;;;7.10;0.93;;;29.70;1.00;;;;;;5063735;28;21004;-75
2022/07/04 13:16:31;;;;;;;0.70;0.70;;;29.70;1.00;;;;;;5084337;28;20464;-75
2022/07/04 13:19:21;;;;;;;1.87;0.80;;;29.40;1.00;;;;;;5056777;28;20429;-79
2022/07/04 13:21:53;;;;;;;3.33;0.70;;;29.40;1.00;;;;;;5057340;28;20517;-79
2022/07/04 13:24:21;;;;;;;1.40;0.60;;;29.50;1.00;;;;;;5087054;28;20448;-79
2022/07/04 13:26:51;;;;;;;5.70;0.70;;;29.40;1.00;;;;;;5075113;28;20443;-80
2022/07/04 13:29:17;;;;;;;1.30;0.80;;;29.30;1.00;;;;;;5065464;28;20419;-80
2022/07/04 13:32:21;;;;;;;4.13;0.70;;;29.10;1.00;;;;;;5054765;28;20421;-79
2022/07/04 13:34:47;;;;;;;2.30;0.83;;;29.20;1.00;;;;;;5065762;28;20210;-75
2022/07/04 13:37:15;;;;;;;0.70;0.70;;;29.30;1.00;;;;;;5082730;28;20411;-75
2022/07/04 13:39:53;;;;;;;0.70;0.70;;;29.30;1.00;;;;;;5074124;28;20908;-75
2022/07/04 13:45:10;;;;;;;1.90;0.80;;;29.30;1.00;;;;;;5087541;28;20428;-74
2022/07/04 13:47:35;;;;;;;1.10;0.70;;;29.20;1.00;;;;;;5087706;28;20407;-75
2022/07/04 13:50:01;;;;;;;2.00;0.70;;;29.40;1.00;;;;;;5073784;28;20424;-75
2022/07/04 13:52:27;;;;;;;2.67;0.67;;;29.50;1.00;;;;;;5061861;28;20190;-75
2022/07/04 13:54:53;;;;;;;1.60;0.73;;;29.60;1.00;;;;;;5079107;28;20668;-75
2022/07/04 13:57:19;;;;;;;1.67;0.80;;;29.50;1.00;;;;;;5081660;28;20432;-75
2022/07/04 13:59:45;;;;;;;2.90;0.60;;;29.60;1.00;;;;;;5073412;28;20176;-75
2022/07/04 14:02:10;;;;;;;0.70;0.60;;;29.70;1.00;;;;;;5054673;28;20398;-75
2022/07/04 14:04:39;;;;;;;1.73;0.60;;;29.80;1.00;;;;;;5058930;28;20659;-75
2022/07/04 14:07:09;;;;;;;3.37;0.70;;;30.00;1.00;;;;;;5054880;28;20217;-75
2022/07/04 14:09:39;;;;;;;2.80;0.73;;;30.10;1.00;;;;;;5086645;28;20915;-74
2022/07/04 14:12:05;;;;;;;1.63;0.77;;;30.00;1.00;;;;;;5075644;28;20441;-75
2022/07/04 14:14:31;;;;;;;1.00;0.80;;;30.00;1.00;;;;;;5072339;28;20461;-75
2022/07/04 14:16:57;;;;;;;3.77;0.90;;;30.00;1.00;;;;;;5055411;28;20407;-75
2022/07/04 14:19:22;;;;;;;1.03;0.90;;;30.00;1.00;;;;;;5082302;28;20166;-75
2022/07/04 14:21:48;;;;;;;3.00;0.70;;;29.80;1.00;;;;;;5059349;28;20653;-75
2022/07/04 14:24:14;;;;;;;1.73;0.60;;;29.80;1.00;;;;;;5065665;28;20176;-75
2022/07/04 14:26:45;;;;;;;1.73;0.60;;;29.90;1.00;;;;;;5055817;28;20228;-75
2022/07/04 14:29:16;;;;;;;1.33;0.60;;;30.10;1.00;;;;;;5057173;28;20433;-75
2022/07/04 14:31:42;;;;;;;3.27;0.70;;;30.20;1.00;;;;;;5067482;28;20828;-75
2022/07/04 14:34:11;;;;;;;4.17;0.70;;;30.10;1.00;;;;;;5062828;28;20501;-75
2022/07/04 14:36:39;;;;;;;3.30;0.67;;;30.10;1.00;;;;;;5073503;28;20681;-76
2022/07/04 14:39:07;;;;;;;2.30;0.60;;;30.20;1.00;;;;;;5075325;28;20961;-76
2022/07/04 14:41:39;;;;;;;3.10;0.90;;;30.10;1.00;;;;;;5060981;28;20424;-78
2022/07/04 14:44:05;;;;;;;1.10;0.70;;;30.10;1.00;;;;;;5073943;28;20464;-76
2022/07/04 14:46:31;;;;;;;1.57;0.60;;;29.90;1.00;;;;;;5077775;28;20440;-76
2022/07/04 14:49:15;;;;;;;0.60;0.50;;;29.80;1.00;;;;;;5083904;28;20176;-83
2022/07/04 14:51:52;;;;;;;1.10;0.73;;;29.80;1.00;;;;;;5072165;28;21750;-78
2022/07/04 14:54:33;;;;;;;1.20;0.70;;;29.70;1.00;;;;;;5073270;28;20441;-84
2022/07/04 14:56:59;;;;;;;0.87;0.50;;;29.90;1.00;;;;;;5067350;28;22024;-81
2022/07/04 14:59:40;;;;;;;2.30;0.63;;;30.10;1.00;;;;;;5056713;28;20436;-79
2022/07/04 15:02:33;;;;;;;2.10;0.90;;;30.20;1.00;;;;;;5053463;28;20170;-79
2022/07/04 15:05:18;;;;;;;1.50;0.77;;;30.10;1.00;;;;;;5063017;28;20769;-76
2022/07/04 15:07:53;;;;;;;0.60;0.53;;;30.30;1.00;;;;;;5071756;28;20441;-76
2022/07/04 15:10:22;;;;;;;1.10;1.00;;;30.40;1.00;;;;;;5073194;28;20381;-76
2022/07/04 15:12:57;;;;;;;0.70;0.60;;;30.80;1.00;;;;;;5067881;28;20472;-76
2022/07/04 15:15:40;;;;;;;0.70;0.57;;;31.30;1.00;;;;;;5072893;28;20756;-76
2022/07/04 15:18:06;;;;;;;1.50;0.73;;;32.20;1.00;;;;;;5073635;28;20390;-75
2022/07/04 15:26:28;;;;;;;1.37;0.63;;;33.50;1.00;;;;;;5053760;28;20421;-78
2022/07/04 15:28:53;;;;;;;1.57;0.60;;;34.00;1.00;;;;;;5053725;28;21048;-79
2022/07/04 15:31:27;;;;;;;1.43;0.60;;;34.30;1.00;;;;;;5053221;28;20429;-78
2022/07/04 15:33:57;;;;;;;2.33;0.60;;;35.50;1.00;;;;;;5053417;28;20646;-78
2022/07/04 15:36:39;;;;;;;1.13;0.50;;;37.40;1.00;;;;;;5053867;28;20492;-78
2022/07/04 15:39:27;;;;;;;0.80;0.60;;;38.70;1.00;;;;;;5062601;28;20401;-78